sensor_id;sensor_type;location;lat;lon;timestamp;temperature;humidity
59999;DHT22;45859;51.378;6.736;2022-11-18T00:01:15;9.50;99.90
59999;DHT22;45859;51.378;6.736;2022-11-18T00:03:42;9.50;99.90
59999;DHT22;45859;51.378;6.736;2022-11-18T00:06:13;9.50;99.90
59999;DHT22;45859;51.378;6.736;2022-11-18T00:08:40;9.50;99.90
59999;DHT22;45859;51.378;6.736;2022-11-18T00:11:19;9.50;99.90
59999;DHT22;45859;51.378;6.736;2022-11-18T00:14:05;9.60;99.90
59999;DHT22;45859;51.378;6.736;2022-11-18T00:16:56;9.60;99.90
59999;DHT22;45859;51.378;6.736;2022-11-18T00:19:36;9.60;99.90
59999;DHT22;45859;51.378;6.736;2022-11-18T00:22:03;9.60;99.90
59999;DHT22;45859;51.378;6.736;2022-11-18T00:24:30;9.50;99.90
59999;DHT22;45859;51.378;6.736;2022-11-18T00:26:55;9.50;99.90
59999;DHT22;45859;51.378;6.736;2022-11-18T00:29:22;9.40;99.90
59999;DHT22;45859;51.378;6.736;2022-11-18T00:31:48;9.40;99.90
59999;DHT22;45859;51.378;6.736;2022-11-18T00:34:16;9.40;99.90
59999;DHT22;45859;51.378;6.736;2022-11-18T00:36:43;9.30;99.90
59999;DHT22;45859;51.378;6.736;2022-11-18T00:39:10;9.20;99.90
59999;DHT22;45859;51.378;6.736;2022-11-18T00:41:36;9.20;99.90
59999;DHT22;45859;51.378;6.736;2022-11-18T00:44:20;9.20;99.90
59999;DHT22;45859;51.378;6.736;2022-11-18T00:46:46;9.10;99.90
59999;DHT22;45859;51.378;6.736;2022-11-18T00:49:11;9.10;99.90
59999;DHT22;45859;51.378;6.736;2022-11-18T00:51:37;9.00;99.90
59999;DHT22;45859;51.378;6.736;2022-11-18T00:54:03;8.90;99.90
59999;DHT22;45859;51.378;6.736;2022-11-18T00:56:28;8.90;99.90
59999;DHT22;45859;51.378;6.736;2022-11-18T00:58:54;8.80;99.90
59999;DHT22;45859;51.378;6.736;2022-11-18T01:01:20;8.80;99.90
59999;DHT22;45859;51.378;6.736;2022-11-18T01:03:46;8.80;99.90
59999;DHT22;45859;51.378;6.736;2022-11-18T01:06:11;8.80;99.90
59999;DHT22;45859;51.378;6.736;2022-11-18T01:08:37;8.80;99.90
59999;DHT22;45859;51.378;6.736;2022-11-18T01:11:03;8.80;99.90
59999;DHT22;45859;51.378;6.736;2022-11-18T01:13:51;8.90;99.90
59999;DHT22;45859;51.378;6.736;2022-11-18T01:16:19;8.90;99.90
59999;DHT22;45859;51.378;6.736;2022-11-18T01:18:45;8.90;99.90
59999;DHT22;45859;51.378;6.736;2022-11-18T01:21:10;9.00;99.90
59999;DHT22;45859;51.378;6.736;2022-11-18T01:23:36;9.00;99.90
59999;DHT22;45859;51.378;6.736;2022-11-18T01:26:08;9.00;99.90
59999;DHT22;45859;51.378;6.736;2022-11-18T01:28:35;9.00;99.90
59999;DHT22;45859;51.378;6.736;2022-11-18T01:31:16;9.00;99.90
59999;DHT22;45859;51.378;6.736;2022-11-18T01:33:42;9.00;99.90
59999;DHT22;45859;51.378;6.736;2022-11-18T01:36:18;9.00;99.90
59999;DHT22;45859;51.378;6.736;2022-11-18T01:38:44;9.00;99.90
59999;DHT22;45859;51.378;6.736;2022-11-18T01:41:10;9.00;99.90
59999;DHT22;45859;51.378;6.736;2022-11-18T01:46:14;9.00;99.90
59999;DHT22;45859;51.378;6.736;2022-11-18T01:48:40;9.00;99.90
59999;DHT22;45859;51.378;6.736;2022-11-18T01:51:13;9.10;99.90
59999;DHT22;45859;51.378;6.736;2022-11-18T01:53:46;9.00;99.90
59999;DHT22;45859;51.378;6.736;2022-11-18T01:56:18;9.10;99.90
59999;DHT22;45859;51.378;6.736;2022-11-18T01:58:45;9.00;99.90
59999;DHT22;45859;51.378;6.736;2022-11-18T02:01:13;9.00;99.90
59999;DHT22;45859;51.378;6.736;2022-11-18T02:03:40;9.00;99.90
59999;DHT22;45859;51.378;6.736;2022-11-18T02:06:08;9.00;99.90
59999;DHT22;45859;51.378;6.736;2022-11-18T02:08:35;9.00;99.90
59999;DHT22;45859;51.378;6.736;2022-11-18T02:11:03;9.00;99.90
59999;DHT22;45859;51.378;6.736;2022-11-18T02:13:29;9.00;99.90
59999;DHT22;45859;51.378;6.736;2022-11-18T02:16:14;9.00;99.90
59999;DHT22;45859;51.378;6.736;2022-11-18T02:21:18;9.00;99.90
59999;DHT22;45859;51.378;6.736;2022-11-18T02:29:32;9.10;99.90
59999;DHT22;45859;51.378;6.736;2022-11-18T02:32:36;9.10;99.90
59999;DHT22;45859;51.378;6.736;2022-11-18T02:35:21;9.10;99.90
59999;DHT22;45859;51.378;6.736;2022-11-18T02:38:17;9.10;99.90
59999;DHT22;45859;51.378;6.736;2022-11-18T02:40:46;9.10;99.90
59999;DHT22;45859;51.378;6.736;2022-11-18T02:43:33;9.00;99.90
59999;DHT22;45859;51.378;6.736;2022-11-18T02:46:07;9.00;99.90
59999;DHT22;45859;51.378;6.736;2022-11-18T02:48:38;9.00;99.90
59999;DHT22;45859;51.378;6.736;2022-11-18T02:51:06;8.90;99.90
59999;DHT22;45859;51.378;6.736;2022-11-18T02:53:35;8.90;99.90
59999;DHT22;45859;51.378;6.736;2022-11-18T02:56:03;8.90;99.90
59999;DHT22;45859;51.378;6.736;2022-11-18T02:58:29;8.90;99.90
59999;DHT22;45859;51.378;6.736;2022-11-18T03:00:57;8.90;99.90
59999;DHT22;45859;51.378;6.736;2022-11-18T03:06:38;8.90;99.90
59999;DHT22;45859;51.378;6.736;2022-11-18T03:09:35;8.90;99.90
59999;DHT22;45859;51.378;6.736;2022-11-18T03:17:05;8.80;99.90
59999;DHT22;45859;51.378;6.736;2022-11-18T03:20:04;8.80;99.90
59999;DHT22;45859;51.378;6.736;2022-11-18T03:25:37;8.90;99.90
59999;DHT22;45859;51.378;6.736;2022-11-18T03:30:42;9.00;99.90
59999;DHT22;45859;51.378;6.736;2022-11-18T03:33:16;9.00;99.90
59999;DHT22;45859;51.378;6.736;2022-11-18T03:35:47;9.10;99.90
59999;DHT22;45859;51.378;6.736;2022-11-18T03:38:17;9.10;99.90
59999;DHT22;45859;51.378;6.736;2022-11-18T03:40:49;9.10;99.90
59999;DHT22;45859;51.378;6.736;2022-11-18T03:43:20;9.10;99.90
59999;DHT22;45859;51.378;6.736;2022-11-18T03:45:51;9.10;99.90
59999;DHT22;45859;51.378;6.736;2022-11-18T03:48:24;9.10;99.90
59999;DHT22;45859;51.378;6.736;2022-11-18T03:50:58;9.10;99.90
59999;DHT22;45859;51.378;6.736;2022-11-18T03:53:28;9.10;99.90
59999;DHT22;45859;51.378;6.736;2022-11-18T03:56:00;9.20;99.90
59999;DHT22;45859;51.378;6.736;2022-11-18T03:58:34;9.10;99.90
59999;DHT22;45859;51.378;6.736;2022-11-18T04:01:07;9.20;99.90
59999;DHT22;45859;51.378;6.736;2022-11-18T04:03:34;9.20;99.90
59999;DHT22;45859;51.378;6.736;2022-11-18T04:06:13;9.20;99.90
59999;DHT22;45859;51.378;6.736;2022-11-18T04:08:41;9.20;99.90
59999;DHT22;45859;51.378;6.736;2022-11-18T04:11:12;9.20;99.90
59999;DHT22;45859;51.378;6.736;2022-11-18T04:13:59;9.30;99.90
59999;DHT22;45859;51.378;6.736;2022-11-18T04:16:25;9.20;99.90
59999;DHT22;45859;51.378;6.736;2022-11-18T04:18:51;9.20;99.90
59999;DHT22;45859;51.378;6.736;2022-11-18T04:21:17;9.20;99.90
59999;DHT22;45859;51.378;6.736;2022-11-18T04:23:42;9.20;99.90
59999;DHT22;45859;51.378;6.736;2022-11-18T04:26:09;9.20;99.90
59999;DHT22;45859;51.378;6.736;2022-11-18T04:28:36;9.20;99.90
59999;DHT22;45859;51.378;6.736;2022-11-18T04:31:01;9.20;99.90
59999;DHT22;45859;51.378;6.736;2022-11-18T04:33:27;9.30;99.90
59999;DHT22;45859;51.378;6.736;2022-11-18T04:35:53;9.30;99.90
59999;DHT22;45859;51.378;6.736;2022-11-18T04:38:18;9.20;99.90
59999;DHT22;45859;51.378;6.736;2022-11-18T04:40:45;9.20;99.90
59999;DHT22;45859;51.378;6.736;2022-11-18T04:43:11;9.20;99.90
59999;DHT22;45859;51.378;6.736;2022-11-18T04:45:36;9.30;99.90
59999;DHT22;45859;51.378;6.736;2022-11-18T04:48:02;9.30;99.90
59999;DHT22;45859;51.378;6.736;2022-11-18T04:50:28;9.30;99.90
59999;DHT22;45859;51.378;6.736;2022-11-18T04:52:54;9.30;99.90
59999;DHT22;45859;51.378;6.736;2022-11-18T04:55:19;9.30;99.90
59999;DHT22;45859;51.378;6.736;2022-11-18T04:57:45;9.30;99.90
59999;DHT22;45859;51.378;6.736;2022-11-18T05:00:11;9.30;99.90
59999;DHT22;45859;51.378;6.736;2022-11-18T05:02:37;9.30;99.90
59999;DHT22;45859;51.378;6.736;2022-11-18T05:05:03;9.20;99.90
59999;DHT22;45859;51.378;6.736;2022-11-18T05:07:28;9.20;99.90
59999;DHT22;45859;51.378;6.736;2022-11-18T05:09:54;9.10;99.90
59999;DHT22;45859;51.378;6.736;2022-11-18T05:12:20;9.10;99.90
59999;DHT22;45859;51.378;6.736;2022-11-18T05:15:04;9.10;99.90
59999;DHT22;45859;51.378;6.736;2022-11-18T05:17:30;9.00;99.90
59999;DHT22;45859;51.378;6.736;2022-11-18T05:19:55;9.00;99.90
59999;DHT22;45859;51.378;6.736;2022-11-18T05:22:21;9.00;99.90
59999;DHT22;45859;51.378;6.736;2022-11-18T05:24:47;9.00;99.90
59999;DHT22;45859;51.378;6.736;2022-11-18T05:27:14;9.00;99.90
59999;DHT22;45859;51.378;6.736;2022-11-18T05:29:40;8.90;99.90
59999;DHT22;45859;51.378;6.736;2022-11-18T05:32:05;8.90;99.90
59999;DHT22;45859;51.378;6.736;2022-11-18T05:34:31;8.80;99.90
59999;DHT22;45859;51.378;6.736;2022-11-18T05:36:57;8.80;99.90
59999;DHT22;45859;51.378;6.736;2022-11-18T05:39:23;8.80;99.90
59999;DHT22;45859;51.378;6.736;2022-11-18T05:41:48;8.80;99.90
59999;DHT22;45859;51.378;6.736;2022-11-18T05:44:32;8.80;99.90
59999;DHT22;45859;51.378;6.736;2022-11-18T05:46:58;8.70;99.90
59999;DHT22;45859;51.378;6.736;2022-11-18T05:49:24;8.70;99.90
59999;DHT22;45859;51.378;6.736;2022-11-18T05:51:50;8.60;99.90
59999;DHT22;45859;51.378;6.736;2022-11-18T05:54:18;8.50;99.90
59999;DHT22;45859;51.378;6.736;2022-11-18T05:56:45;8.40;99.90
59999;DHT22;45859;51.378;6.736;2022-11-18T05:59:11;8.40;99.90
59999;DHT22;45859;51.378;6.736;2022-11-18T06:01:49;8.50;99.90
59999;DHT22;45859;51.378;6.736;2022-11-18T06:04:41;8.50;99.90
59999;DHT22;45859;51.378;6.736;2022-11-18T06:07:26;8.50;99.90
59999;DHT22;45859;51.378;6.736;2022-11-18T06:09:55;8.50;99.90
59999;DHT22;45859;51.378;6.736;2022-11-18T06:12:27;8.60;99.90
59999;DHT22;45859;51.378;6.736;2022-11-18T06:17:39;8.50;99.90
59999;DHT22;45859;51.378;6.736;2022-11-18T06:20:07;8.60;99.90
59999;DHT22;45859;51.378;6.736;2022-11-18T06:22:34;8.60;99.90
59999;DHT22;45859;51.378;6.736;2022-11-18T06:25:00;8.60;99.90
59999;DHT22;45859;51.378;6.736;2022-11-18T06:27:27;8.60;99.90
59999;DHT22;45859;51.378;6.736;2022-11-18T06:29:53;8.60;99.90
59999;DHT22;45859;51.378;6.736;2022-11-18T06:32:19;8.60;99.90
59999;DHT22;45859;51.378;6.736;2022-11-18T06:34:44;8.60;99.90
59999;DHT22;45859;51.378;6.736;2022-11-18T06:37:15;8.60;99.90
59999;DHT22;45859;51.378;6.736;2022-11-18T06:39:41;8.70;99.90
59999;DHT22;45859;51.378;6.736;2022-11-18T06:42:06;8.70;99.90
59999;DHT22;45859;51.378;6.736;2022-11-18T06:44:32;8.70;99.90
59999;DHT22;45859;51.378;6.736;2022-11-18T06:46:58;8.70;99.90
59999;DHT22;45859;51.378;6.736;2022-11-18T06:49:25;8.70;99.90
59999;DHT22;45859;51.378;6.736;2022-11-18T06:51:51;8.70;99.90
59999;DHT22;45859;51.378;6.736;2022-11-18T06:54:17;8.70;99.90
59999;DHT22;45859;51.378;6.736;2022-11-18T06:56:43;8.70;99.90
59999;DHT22;45859;51.378;6.736;2022-11-18T06:59:08;8.70;99.90
59999;DHT22;45859;51.378;6.736;2022-11-18T07:01:36;8.70;99.90
59999;DHT22;45859;51.378;6.736;2022-11-18T07:04:03;8.70;99.90
59999;DHT22;45859;51.378;6.736;2022-11-18T07:06:31;8.80;99.90
59999;DHT22;45859;51.378;6.736;2022-11-18T07:09:04;8.80;99.90
59999;DHT22;45859;51.378;6.736;2022-11-18T07:11:30;8.80;99.90
59999;DHT22;45859;51.378;6.736;2022-11-18T07:13:55;8.80;99.90
59999;DHT22;45859;51.378;6.736;2022-11-18T07:16:23;8.80;99.90
59999;DHT22;45859;51.378;6.736;2022-11-18T07:18:50;8.80;99.90
59999;DHT22;45859;51.378;6.736;2022-11-18T07:21:19;8.80;99.90
59999;DHT22;45859;51.378;6.736;2022-11-18T07:23:45;8.80;99.90
59999;DHT22;45859;51.378;6.736;2022-11-18T07:26:12;8.80;99.90
59999;DHT22;45859;51.378;6.736;2022-11-18T07:28:38;8.80;99.90
59999;DHT22;45859;51.378;6.736;2022-11-18T07:31:12;8.80;99.90
59999;DHT22;45859;51.378;6.736;2022-11-18T07:33:39;8.80;99.90
59999;DHT22;45859;51.378;6.736;2022-11-18T07:36:08;8.80;99.90
59999;DHT22;45859;51.378;6.736;2022-11-18T07:38:34;8.80;99.90
59999;DHT22;45859;51.378;6.736;2022-11-18T07:43:31;8.80;99.90
59999;DHT22;45859;51.378;6.736;2022-11-18T07:45:56;8.80;99.90
59999;DHT22;45859;51.378;6.736;2022-11-18T07:48:22;8.80;99.90
59999;DHT22;45859;51.378;6.736;2022-11-18T07:50:47;9.60;99.90
59999;DHT22;45859;51.378;6.736;2022-11-18T07:53:13;8.90;99.90
59999;DHT22;45859;51.378;6.736;2022-11-18T07:55:39;8.90;99.90
59999;DHT22;45859;51.378;6.736;2022-11-18T07:58:04;9.10;99.90
59999;DHT22;45859;51.378;6.736;2022-11-18T08:00:30;9.70;99.90
59999;DHT22;45859;51.378;6.736;2022-11-18T08:02:55;9.10;99.90
59999;DHT22;45859;51.378;6.736;2022-11-18T08:05:21;9.30;99.90
59999;DHT22;45859;51.378;6.736;2022-11-18T08:07:46;9.30;99.90
59999;DHT22;45859;51.378;6.736;2022-11-18T08:10:12;9.30;99.90
59999;DHT22;45859;51.378;6.736;2022-11-18T08:12:38;9.30;99.90
59999;DHT22;45859;51.378;6.736;2022-11-18T08:15:03;9.30;99.90
59999;DHT22;45859;51.378;6.736;2022-11-18T08:17:29;9.30;99.90
59999;DHT22;45859;51.378;6.736;2022-11-18T08:19:54;9.30;99.90
59999;DHT22;45859;51.378;6.736;2022-11-18T08:22:20;9.30;99.90
59999;DHT22;45859;51.378;6.736;2022-11-18T08:24:46;9.40;99.90
59999;DHT22;45859;51.378;6.736;2022-11-18T08:27:12;9.40;99.90
59999;DHT22;45859;51.378;6.736;2022-11-18T08:29:38;9.30;99.90
59999;DHT22;45859;51.378;6.736;2022-11-18T08:32:04;9.30;99.90
59999;DHT22;45859;51.378;6.736;2022-11-18T08:34:30;9.30;99.90
59999;DHT22;45859;51.378;6.736;2022-11-18T08:36:56;9.20;99.90
59999;DHT22;45859;51.378;6.736;2022-11-18T08:39:21;9.20;99.90
59999;DHT22;45859;51.378;6.736;2022-11-18T08:41:47;9.20;99.90
59999;DHT22;45859;51.378;6.736;2022-11-18T08:44:14;9.30;99.90
59999;DHT22;45859;51.378;6.736;2022-11-18T08:46:42;9.50;99.90
59999;DHT22;45859;51.378;6.736;2022-11-18T08:49:10;9.30;99.90
59999;DHT22;45859;51.378;6.736;2022-11-18T08:51:35;9.40;99.90
59999;DHT22;45859;51.378;6.736;2022-11-18T08:54:01;9.40;99.90
59999;DHT22;45859;51.378;6.736;2022-11-18T08:56:26;9.50;99.90
59999;DHT22;45859;51.378;6.736;2022-11-18T08:58:52;9.60;99.90
59999;DHT22;45859;51.378;6.736;2022-11-18T09:01:18;10.20;99.90
59999;DHT22;45859;51.378;6.736;2022-11-18T09:03:44;9.70;99.90
59999;DHT22;45859;51.378;6.736;2022-11-18T09:06:18;9.90;99.90
59999;DHT22;45859;51.378;6.736;2022-11-18T09:08:44;10.00;99.90
59999;DHT22;45859;51.378;6.736;2022-11-18T09:11:15;10.00;99.90
59999;DHT22;45859;51.378;6.736;2022-11-18T09:13:41;10.00;99.90
59999;DHT22;45859;51.378;6.736;2022-11-18T09:16:07;10.20;99.90
59999;DHT22;45859;51.378;6.736;2022-11-18T09:18:34;10.10;99.90
59999;DHT22;45859;51.378;6.736;2022-11-18T09:21:02;10.10;99.90
59999;DHT22;45859;51.378;6.736;2022-11-18T09:23:28;10.50;99.90
59999;DHT22;45859;51.378;6.736;2022-11-18T09:26:03;10.50;99.90
59999;DHT22;45859;51.378;6.736;2022-11-18T09:28:29;10.20;99.90
59999;DHT22;45859;51.378;6.736;2022-11-18T09:30:55;10.30;99.90
59999;DHT22;45859;51.378;6.736;2022-11-18T09:33:21;10.50;99.90
59999;DHT22;45859;51.378;6.736;2022-11-18T09:35:47;10.50;99.90
59999;DHT22;45859;51.378;6.736;2022-11-18T09:38:13;10.60;99.90
59999;DHT22;45859;51.378;6.736;2022-11-18T09:40:51;10.70;99.90
59999;DHT22;45859;51.378;6.736;2022-11-18T09:43:39;10.80;99.90
59999;DHT22;45859;51.378;6.736;2022-11-18T09:49:20;10.80;99.90
59999;DHT22;45859;51.378;6.736;2022-11-18T09:51:50;10.70;99.90
59999;DHT22;45859;51.378;6.736;2022-11-18T09:54:22;10.90;99.90
59999;DHT22;45859;51.378;6.736;2022-11-18T09:56:51;10.80;99.90
59999;DHT22;45859;51.378;6.736;2022-11-18T09:59:20;10.90;99.90
59999;DHT22;45859;51.378;6.736;2022-11-18T10:01:47;11.10;99.90
59999;DHT22;45859;51.378;6.736;2022-11-18T10:04:15;11.20;99.90
59999;DHT22;45859;51.378;6.736;2022-11-18T10:06:41;11.30;99.90
59999;DHT22;45859;51.378;6.736;2022-11-18T10:09:34;11.80;99.90
59999;DHT22;45859;51.378;6.736;2022-11-18T10:12:19;11.30;99.90
59999;DHT22;45859;51.378;6.736;2022-11-18T10:18:19;11.40;99.90
59999;DHT22;45859;51.378;6.736;2022-11-18T10:20:46;11.60;99.90
59999;DHT22;45859;51.378;6.736;2022-11-18T10:23:24;11.90;99.90
59999;DHT22;45859;51.378;6.736;2022-11-18T10:25:52;12.10;99.90
59999;DHT22;45859;51.378;6.736;2022-11-18T10:28:24;12.20;99.90
59999;DHT22;45859;51.378;6.736;2022-11-18T10:30:54;12.20;99.90
59999;DHT22;45859;51.378;6.736;2022-11-18T10:33:28;12.30;99.90
59999;DHT22;45859;51.378;6.736;2022-11-18T10:38:40;12.20;99.90
59999;DHT22;45859;51.378;6.736;2022-11-18T10:41:16;12.20;99.90
59999;DHT22;45859;51.378;6.736;2022-11-18T10:43:54;12.20;99.90
59999;DHT22;45859;51.378;6.736;2022-11-18T10:46:30;12.20;99.90
59999;DHT22;45859;51.378;6.736;2022-11-18T10:51:38;12.30;99.90
59999;DHT22;45859;51.378;6.736;2022-11-18T10:56:55;12.40;99.90
59999;DHT22;45859;51.378;6.736;2022-11-18T11:02:26;12.50;99.90
59999;DHT22;45859;51.378;6.736;2022-11-18T11:05:20;12.50;99.90
59999;DHT22;45859;51.378;6.736;2022-11-18T11:08:04;12.60;99.90
59999;DHT22;45859;51.378;6.736;2022-11-18T11:10:30;12.60;99.90
59999;DHT22;45859;51.378;6.736;2022-11-18T11:13:03;12.50;99.90
59999;DHT22;45859;51.378;6.736;2022-11-18T11:15:45;12.50;99.90
59999;DHT22;45859;51.378;6.736;2022-11-18T11:18:25;12.50;99.90
59999;DHT22;45859;51.378;6.736;2022-11-18T11:23:36;12.40;99.90
59999;DHT22;45859;51.378;6.736;2022-11-18T11:26:11;12.40;99.90
59999;DHT22;45859;51.378;6.736;2022-11-18T11:29:17;12.40;99.90
59999;DHT22;45859;51.378;6.736;2022-11-18T11:34:57;12.00;99.90
59999;DHT22;45859;51.378;6.736;2022-11-18T11:46:01;12.10;99.90
59999;DHT22;45859;51.378;6.736;2022-11-18T11:57:03;12.50;99.90
59999;DHT22;45859;51.378;6.736;2022-11-18T11:59:43;12.50;99.90
59999;DHT22;45859;51.378;6.736;2022-11-18T12:07:46;12.60;99.90
59999;DHT22;45859;51.378;6.736;2022-11-18T12:13:13;12.50;99.90
59999;DHT22;45859;51.378;6.736;2022-11-18T12:16:03;12.50;99.90
59999;DHT22;45859;51.378;6.736;2022-11-18T12:24:40;12.80;99.90
59999;DHT22;45859;51.378;6.736;2022-11-18T12:29:58;12.90;99.90
59999;DHT22;45859;51.378;6.736;2022-11-18T12:32:42;12.50;99.90
59999;DHT22;45859;51.378;6.736;2022-11-18T12:35:33;12.60;99.90
59999;DHT22;45859;51.378;6.736;2022-11-18T12:38:01;12.50;99.90
59999;DHT22;45859;51.378;6.736;2022-11-18T12:43:00;12.70;99.90
59999;DHT22;45859;51.378;6.736;2022-11-18T12:50:56;13.40;99.90
59999;DHT22;45859;51.378;6.736;2022-11-18T12:56:33;12.80;99.90
59999;DHT22;45859;51.378;6.736;2022-11-18T12:59:01;12.90;99.90
59999;DHT22;45859;51.378;6.736;2022-11-18T13:01:30;12.60;99.90
59999;DHT22;45859;51.378;6.736;2022-11-18T13:04:15;12.60;99.90
59999;DHT22;45859;51.378;6.736;2022-11-18T13:06:42;12.60;99.90
59999;DHT22;45859;51.378;6.736;2022-11-18T13:09:16;12.60;99.90
59999;DHT22;45859;51.378;6.736;2022-11-18T13:11:54;12.90;99.90
59999;DHT22;45859;51.378;6.736;2022-11-18T13:17:36;12.20;99.90
59999;DHT22;45859;51.378;6.736;2022-11-18T13:20:35;12.20;99.90
59999;DHT22;45859;51.378;6.736;2022-11-18T13:23:16;12.10;99.90
59999;DHT22;45859;51.378;6.736;2022-11-18T13:26:05;12.00;99.90
59999;DHT22;45859;51.378;6.736;2022-11-18T13:28:37;11.90;99.90
59999;DHT22;45859;51.378;6.736;2022-11-18T13:33:39;11.70;99.90
59999;DHT22;45859;51.378;6.736;2022-11-18T13:39:03;11.80;99.90
59999;DHT22;45859;51.378;6.736;2022-11-18T13:41:31;11.50;99.90
59999;DHT22;45859;51.378;6.736;2022-11-18T13:44:24;11.70;99.90
59999;DHT22;45859;51.378;6.736;2022-11-18T13:47:03;11.50;99.90
59999;DHT22;45859;51.378;6.736;2022-11-18T13:49:42;11.50;99.90
59999;DHT22;45859;51.378;6.736;2022-11-18T13:52:13;12.50;99.90
59999;DHT22;45859;51.378;6.736;2022-11-18T13:54:41;11.30;99.90
59999;DHT22;45859;51.378;6.736;2022-11-18T13:57:17;11.10;99.90
59999;DHT22;45859;51.378;6.736;2022-11-18T13:59:45;11.40;99.90
59999;DHT22;45859;51.378;6.736;2022-11-18T14:02:13;11.10;99.90
59999;DHT22;45859;51.378;6.736;2022-11-18T14:04:51;11.10;99.90
59999;DHT22;45859;51.378;6.736;2022-11-18T14:07:28;11.00;99.90
59999;DHT22;45859;51.378;6.736;2022-11-18T14:09:57;10.90;99.90
59999;DHT22;45859;51.378;6.736;2022-11-18T14:12:26;11.20;99.90
59999;DHT22;45859;51.378;6.736;2022-11-18T14:15:12;10.80;99.90
59999;DHT22;45859;51.378;6.736;2022-11-18T14:17:37;10.70;99.90
59999;DHT22;45859;51.378;6.736;2022-11-18T14:20:15;10.70;99.90
59999;DHT22;45859;51.378;6.736;2022-11-18T14:22:42;10.70;99.90
59999;DHT22;45859;51.378;6.736;2022-11-18T14:25:27;10.70;99.90
59999;DHT22;45859;51.378;6.736;2022-11-18T14:27:55;10.60;99.90
59999;DHT22;45859;51.378;6.736;2022-11-18T14:30:39;10.60;99.90
59999;DHT22;45859;51.378;6.736;2022-11-18T14:33:24;10.50;99.90
59999;DHT22;45859;51.378;6.736;2022-11-18T14:36:02;10.50;99.90
59999;DHT22;45859;51.378;6.736;2022-11-18T14:38:31;10.50;99.90
59999;DHT22;45859;51.378;6.736;2022-11-18T14:41:02;10.40;99.90
59999;DHT22;45859;51.378;6.736;2022-11-18T14:43:29;10.30;99.90
59999;DHT22;45859;51.378;6.736;2022-11-18T14:46:01;10.30;99.90
59999;DHT22;45859;51.378;6.736;2022-11-18T14:48:28;10.40;99.90
59999;DHT22;45859;51.378;6.736;2022-11-18T14:50:54;10.20;99.90
59999;DHT22;45859;51.378;6.736;2022-11-18T14:53:20;10.20;99.90
59999;DHT22;45859;51.378;6.736;2022-11-18T14:55:48;10.20;99.90
59999;DHT22;45859;51.378;6.736;2022-11-18T14:58:15;10.10;99.90
59999;DHT22;45859;51.378;6.736;2022-11-18T15:00:42;10.10;99.90
59999;DHT22;45859;51.378;6.736;2022-11-18T15:03:08;10.00;99.90
59999;DHT22;45859;51.378;6.736;2022-11-18T15:05:34;10.00;99.90
59999;DHT22;45859;51.378;6.736;2022-11-18T15:07:59;10.00;99.90
59999;DHT22;45859;51.378;6.736;2022-11-18T15:10:25;9.90;99.90
59999;DHT22;45859;51.378;6.736;2022-11-18T15:12:51;9.80;99.90
59999;DHT22;45859;51.378;6.736;2022-11-18T15:15:16;9.80;99.90
59999;DHT22;45859;51.378;6.736;2022-11-18T15:17:42;9.70;99.90
59999;DHT22;45859;51.378;6.736;2022-11-18T15:20:19;9.60;99.90
59999;DHT22;45859;51.378;6.736;2022-11-18T15:22:45;9.50;99.90
59999;DHT22;45859;51.378;6.736;2022-11-18T15:25:10;9.30;99.90
59999;DHT22;45859;51.378;6.736;2022-11-18T15:27:36;9.20;99.90
59999;DHT22;45859;51.378;6.736;2022-11-18T15:30:03;9.10;99.90
59999;DHT22;45859;51.378;6.736;2022-11-18T15:32:29;9.00;99.90
59999;DHT22;45859;51.378;6.736;2022-11-18T15:34:54;9.10;99.90
59999;DHT22;45859;51.378;6.736;2022-11-18T15:37:20;8.80;99.90
59999;DHT22;45859;51.378;6.736;2022-11-18T15:39:46;8.70;99.90
59999;DHT22;45859;51.378;6.736;2022-11-18T15:42:17;8.70;99.90
59999;DHT22;45859;51.378;6.736;2022-11-18T15:44:44;8.60;99.90
59999;DHT22;45859;51.378;6.736;2022-11-18T15:47:10;8.50;99.90
59999;DHT22;45859;51.378;6.736;2022-11-18T15:49:35;8.50;99.90
59999;DHT22;45859;51.378;6.736;2022-11-18T15:52:01;8.50;99.90
59999;DHT22;45859;51.378;6.736;2022-11-18T15:54:27;8.90;99.90
59999;DHT22;45859;51.378;6.736;2022-11-18T15:56:52;8.20;99.90
59999;DHT22;45859;51.378;6.736;2022-11-18T15:59:18;8.10;99.90
59999;DHT22;45859;51.378;6.736;2022-11-18T16:01:45;8.00;99.90
59999;DHT22;45859;51.378;6.736;2022-11-18T16:04:13;8.30;99.90
59999;DHT22;45859;51.378;6.736;2022-11-18T16:06:39;7.90;99.90
59999;DHT22;45859;51.378;6.736;2022-11-18T16:09:07;7.80;99.90
59999;DHT22;45859;51.378;6.736;2022-11-18T16:11:33;7.80;99.90
59999;DHT22;45859;51.378;6.736;2022-11-18T16:14:19;7.70;99.90
59999;DHT22;45859;51.378;6.736;2022-11-18T16:16:47;7.60;99.90
59999;DHT22;45859;51.378;6.736;2022-11-18T16:19:15;7.60;99.90
59999;DHT22;45859;51.378;6.736;2022-11-18T16:21:46;7.50;99.90
59999;DHT22;45859;51.378;6.736;2022-11-18T16:24:18;7.60;99.90
59999;DHT22;45859;51.378;6.736;2022-11-18T16:26:44;7.70;99.90
59999;DHT22;45859;51.378;6.736;2022-11-18T16:29:11;8.20;99.90
59999;DHT22;45859;51.378;6.736;2022-11-18T16:31:37;7.80;99.90
59999;DHT22;45859;51.378;6.736;2022-11-18T16:34:13;7.80;99.90
59999;DHT22;45859;51.378;6.736;2022-11-18T16:36:42;7.70;99.90
59999;DHT22;45859;51.378;6.736;2022-11-18T16:39:13;7.70;99.90
59999;DHT22;45859;51.378;6.736;2022-11-18T16:41:40;7.70;99.90
59999;DHT22;45859;51.378;6.736;2022-11-18T16:44:12;7.70;99.90
59999;DHT22;45859;51.378;6.736;2022-11-18T16:46:40;7.60;99.90
59999;DHT22;45859;51.378;6.736;2022-11-18T16:49:06;7.60;99.90
59999;DHT22;45859;51.378;6.736;2022-11-18T16:51:35;7.60;99.90
59999;DHT22;45859;51.378;6.736;2022-11-18T16:54:03;7.50;99.90
59999;DHT22;45859;51.378;6.736;2022-11-18T16:56:31;7.60;99.90
59999;DHT22;45859;51.378;6.736;2022-11-18T16:58:59;7.60;99.90
59999;DHT22;45859;51.378;6.736;2022-11-18T17:01:25;7.70;99.90
59999;DHT22;45859;51.378;6.736;2022-11-18T17:03:52;7.70;99.90
59999;DHT22;45859;51.378;6.736;2022-11-18T17:06:19;7.70;99.90
59999;DHT22;45859;51.378;6.736;2022-11-18T17:08:45;7.70;99.90
59999;DHT22;45859;51.378;6.736;2022-11-18T17:11:11;8.00;99.90
59999;DHT22;45859;51.378;6.736;2022-11-18T17:13:38;7.90;99.90
59999;DHT22;45859;51.378;6.736;2022-11-18T17:16:09;7.90;99.90
59999;DHT22;45859;51.378;6.736;2022-11-18T17:18:35;8.00;99.90
59999;DHT22;45859;51.378;6.736;2022-11-18T17:21:06;8.20;99.90
59999;DHT22;45859;51.378;6.736;2022-11-18T17:23:32;8.10;99.90
59999;DHT22;45859;51.378;6.736;2022-11-18T17:25:58;8.10;99.90
59999;DHT22;45859;51.378;6.736;2022-11-18T17:28:24;8.10;99.90
59999;DHT22;45859;51.378;6.736;2022-11-18T17:30:50;8.10;99.90
59999;DHT22;45859;51.378;6.736;2022-11-18T17:33:16;8.00;99.90
59999;DHT22;45859;51.378;6.736;2022-11-18T17:35:42;8.00;99.90
59999;DHT22;45859;51.378;6.736;2022-11-18T17:38:07;8.00;99.90
59999;DHT22;45859;51.378;6.736;2022-11-18T17:40:33;8.00;99.90
59999;DHT22;45859;51.378;6.736;2022-11-18T17:42:58;8.30;99.90
59999;DHT22;45859;51.378;6.736;2022-11-18T17:45:24;7.90;99.90
59999;DHT22;45859;51.378;6.736;2022-11-18T17:47:49;7.90;99.90